Terminal Aerodrome Forecast
Issued by NWS

Home | Current Version | Previous Version | Text Only | Print | Product List | Glossary On
Versions: 1 2 3 4 5 6 7 8 9 10 11 12 13 14 15 16 17 18 19 20 21 22 23 24 25 26 27 28 29 30
000
FTAK31 PAFA 291146 AAA
TAFAOT
TAF AMD
PAOT 291146Z 2912/3012 30018G25KT P6SM SCT025 OVC040
     FM291600 30018KT P6SM VCSH SCT020 OVC035
     FM292200 29015KT P6SM -SHRA BKN020 OVC050=

USA.gov is the U.S. government's official web portal to all federal, state and local government web resources and services.